Time;durP1;ratioP1;P1;durP2;ratioP2;P2;SDS_P1;SDS_P2;PMS_P1;PMS_P2;Temp;Humidity;BMP_temperature;BMP_pressure;BME280_temperature;BME280_humidity;BME280_pressure;Samples;Min_cycle;Max_cycle;Signal;HPM_P1;HPM_P2
2022/01/10 00:04:44;;;;;;;33.55;21.88;;;;;;;;;;10349732;28;20079;-57
2022/01/10 00:09:43;;;;;;;26.52;17.10;;;;;;;;;;10349587;28;20072;-57
2022/01/10 00:14:41;;;;;;;37.85;18.67;;;;;;;;;;10349620;28;20075;-58
2022/01/10 00:19:41;;;;;;;52.15;26.00;;;;;;;;;;10350358;28;20068;-59
2022/01/10 00:24:40;;;;;;;42.92;21.85;;;;;;;;;;10350724;28;20089;-57
2022/01/10 00:29:38;;;;;;;36.60;18.67;;;;;;;;;;10351172;28;20071;-57
2022/01/10 00:34:37;;;;;;;37.10;21.52;;;;;;;;;;10338676;28;20357;-56
2022/01/10 00:39:38;;;;;;;45.53;20.40;;;;;;;;;;10358467;28;20501;-56
2022/01/10 00:44:39;;;;;;;52.72;21.58;;;;;;;;;;10358351;28;20056;-57
2022/01/10 00:49:38;;;;;;;47.50;22.98;;;;;;;;;;10358188;28;20614;-56
2022/01/10 00:54:38;;;;;;;49.10;22.15;;;;;;;;;;10357687;28;20067;-58
2022/01/10 00:59:38;;;;;;;49.08;20.38;;;;;;;;;;10356737;28;20512;-58
2022/01/10 01:04:36;;;;;;;59.40;23.02;;;;;;;;;;10338814;28;20079;-58
2022/01/10 01:09:35;;;;;;;49.92;20.95;;;;;;;;;;10339101;28;20052;-57
2022/01/10 01:14:50;;;;;;;61.33;22.17;;;;;;;;;;10337245;28;20072;-58
2022/01/10 01:20:05;;;;;;;64.45;20.50;;;;;;;;;;10357077;28;20738;-58
2022/01/10 01:25:04;;;;;;;47.13;21.65;;;;;;;;;;10356521;28;20075;-58
2022/01/10 01:30:04;;;;;;;47.13;21.90;;;;;;;;;;10337346;28;20087;-57
2022/01/10 01:35:06;;;;;;;52.67;20.80;;;;;;;;;;10337260;28;20531;-58
2022/01/10 01:40:07;;;;;;;54.40;20.40;;;;;;;;;;10336406;28;20067;-57
2022/01/10 01:45:08;;;;;;;37.38;19.58;;;;;;;;;;10355692;28;20094;-57
2022/01/10 01:50:08;;;;;;;47.28;22.15;;;;;;;;;;10335183;28;20477;-57
2022/01/10 01:55:08;;;;;;;48.65;25.75;;;;;;;;;;10355718;28;20086;-59
2022/01/10 02:00:08;;;;;;;32.67;19.60;;;;;;;;;;10355485;28;20555;-57
2022/01/10 02:05:14;;;;;;;40.47;20.02;;;;;;;;;;10358936;28;20083;-58
2022/01/10 02:10:13;;;;;;;36.53;20.15;;;;;;;;;;10355452;28;20075;-58
2022/01/10 02:15:26;;;;;;;34.22;19.02;;;;;;;;;;10335704;28;20481;-58
2022/01/10 02:20:30;;;;;;;34.17;19.40;;;;;;;;;;10333161;28;20083;-57
2022/01/10 02:25:28;;;;;;;41.33;19.80;;;;;;;;;;10354670;28;20064;-58
2022/01/10 02:30:28;;;;;;;32.15;19.27;;;;;;;;;;10336129;28;20087;-58
2022/01/10 02:35:27;;;;;;;35.53;19.20;;;;;;;;;;10330968;28;20078;-58
2022/01/10 02:40:30;;;;;;;42.85;21.20;;;;;;;;;;10332055;28;20501;-57
2022/01/10 02:45:28;;;;;;;44.72;20.52;;;;;;;;;;10337141;28;20084;-54
2022/01/10 02:50:27;;;;;;;33.78;20.30;;;;;;;;;;10352720;28;20318;-56
2022/01/10 02:55:27;;;;;;;41.13;20.75;;;;;;;;;;10335825;28;20071;-57
2022/01/10 03:00:26;;;;;;;33.25;18.98;;;;;;;;;;10335704;28;20051;-58
2022/01/10 03:05:25;;;;;;;38.90;19.05;;;;;;;;;;10355027;28;20068;-59
2022/01/10 03:10:23;;;;;;;39.53;19.25;;;;;;;;;;10352598;28;20509;-59
2022/01/10 03:15:23;;;;;;;41.10;18.33;;;;;;;;;;10333375;28;20073;-59
2022/01/10 03:20:23;;;;;;;32.05;18.52;;;;;;;;;;10349956;28;20090;-58
2022/01/10 03:25:21;;;;;;;30.45;17.45;;;;;;;;;;10332630;28;20076;-57
2022/01/10 03:30:26;;;;;;;29.65;18.80;;;;;;;;;;10333270;28;20084;-57
2022/01/10 03:35:24;;;;;;;30.75;16.48;;;;;;;;;;10333691;28;20036;-58
2022/01/10 03:40:23;;;;;;;33.22;18.48;;;;;;;;;;10351276;28;20454;-58
2022/01/10 03:45:25;;;;;;;28.65;17.10;;;;;;;;;;10332820;28;20044;-57
2022/01/10 03:50:24;;;;;;;28.20;17.08;;;;;;;;;;10332471;28;20079;-57
2022/01/10 03:55:22;;;;;;;31.50;16.08;;;;;;;;;;10351092;28;20080;-56
2022/01/10 04:00:22;;;;;;;29.63;17.52;;;;;;;;;;10332097;28;20052;-56
2022/01/10 04:05:22;;;;;;;27.65;17.17;;;;;;;;;;10352061;28;20068;-58
2022/01/10 04:10:21;;;;;;;32.72;18.67;;;;;;;;;;10333784;28;20095;-56
2022/01/10 04:15:19;;;;;;;32.60;17.80;;;;;;;;;;10341095;28;20082;-56
2022/01/10 04:20:18;;;;;;;30.65;19.08;;;;;;;;;;10339302;28;20504;-56
2022/01/10 04:25:18;;;;;;;37.22;24.00;;;;;;;;;;10340056;28;20044;-54
2022/01/10 04:30:16;;;;;;;37.83;24.13;;;;;;;;;;10334365;28;20071;-56
2022/01/10 04:35:15;;;;;;;39.60;25.55;;;;;;;;;;10355370;28;20051;-57
2022/01/10 04:40:14;;;;;;;31.67;21.23;;;;;;;;;;10335596;28;20068;-57
2022/01/10 04:45:14;;;;;;;31.20;20.85;;;;;;;;;;10339669;28;20088;-56
2022/01/10 04:50:36;;;;;;;43.88;24.73;;;;;;;;;;10341145;28;20087;-57
2022/01/10 04:55:34;;;;;;;35.80;25.17;;;;;;;;;;10336239;28;20064;-57
2022/01/10 05:00:34;;;;;;;39.92;25.75;;;;;;;;;;10338870;28;20076;-57
2022/01/10 05:05:33;;;;;;;49.10;34.30;;;;;;;;;;10357657;28;20496;-53
2022/01/10 05:10:32;;;;;;;73.43;51.28;;;;;;;;;;10338110;28;20094;-55
2022/01/10 05:15:31;;;;;;;46.55;26.30;;;;;;;;;;10338316;28;20083;-57
2022/01/10 05:20:31;;;;;;;45.72;27.52;;;;;;;;;;10356673;28;20059;-56
2022/01/10 05:25:29;;;;;;;74.10;32.88;;;;;;;;;;10340976;28;20051;-58
2022/01/10 05:30:28;;;;;;;71.88;33.83;;;;;;;;;;10337746;28;20084;-59
2022/01/10 05:35:27;;;;;;;72.95;31.67;;;;;;;;;;10341732;28;20497;-55
2022/01/10 05:40:26;;;;;;;108.38;34.95;;;;;;;;;;10332259;28;20063;-58
2022/01/10 05:45:25;;;;;;;86.68;30.27;;;;;;;;;;10335871;28;20076;-57
2022/01/10 05:50:33;;;;;;;89.68;30.25;;;;;;;;;;10335929;28;20095;-57
2022/01/10 05:55:37;;;;;;;51.67;26.73;;;;;;;;;;10335963;28;20535;-58
2022/01/10 06:00:38;;;;;;;69.00;31.65;;;;;;;;;;10325952;28;20071;-55
2022/01/10 06:05:37;;;;;;;67.70;29.63;;;;;;;;;;10345533;28;20087;-58
2022/01/10 06:10:39;;;;;;;80.90;28.20;;;;;;;;;;10341086;28;20083;-59
2022/01/10 06:16:00;;;;;;;75.07;30.10;;;;;;;;;;10325585;28;20083;-53
2022/01/10 06:20:59;;;;;;;59.22;31.20;;;;;;;;;;10346366;28;20075;-56
2022/01/10 06:25:59;;;;;;;50.72;25.20;;;;;;;;;;10343169;28;20581;-58
2022/01/10 06:30:59;;;;;;;31.00;18.98;;;;;;;;;;10337299;28;20087;-57
2022/01/10 06:36:08;;;;;;;24.95;17.92;;;;;;;;;;10332175;28;20101;-57
2022/01/10 06:41:09;;;;;;;;;;;;;;;;;;10333881;28;20044;-55
2022/01/10 06:46:09;;;;;;;15.52;11.10;;;;;;;;;;10329224;28;19978;-54
2022/01/10 06:51:09;;;;;;;18.30;13.15;;;;;;;;;;10311754;28;20094;-54
2022/01/10 06:56:10;;;;;;;18.42;13.10;;;;;;;;;;10296487;28;20080;-55
2022/01/10 07:01:15;;;;;;;13.32;9.70;;;;;;;;;;10304608;28;20071;-57
2022/01/10 07:06:13;;;;;;;17.48;10.88;;;;;;;;;;10298783;28;20106;-57
2022/01/10 07:11:13;;;;;;;13.48;10.40;;;;;;;;;;10305545;28;20071;-55
2022/01/10 07:16:15;;;;;;;16.80;12.85;;;;;;;;;;10313337;28;20083;-54
2022/01/10 07:21:20;;;;;;;21.83;17.17;;;;;;;;;;10310934;28;20079;-57
2022/01/10 07:26:19;;;;;;;13.48;11.02;;;;;;;;;;10306716;28;20068;-53
2022/01/10 07:31:24;;;;;;;10.52;8.65;;;;;;;;;;10305430;28;20253;-58
2022/01/10 07:36:23;;;;;;;10.70;9.27;;;;;;;;;;10308409;28;20083;-58
2022/01/10 07:41:21;;;;;;;9.13;8.02;;;;;;;;;;10310163;28;20061;-58
2022/01/10 07:46:20;;;;;;;9.00;8.00;;;;;;;;;;10310187;28;20329;-58
2022/01/10 07:51:20;;;;;;;11.63;10.25;;;;;;;;;;10345369;28;20083;-58
2022/01/10 07:56:18;;;;;;;9.70;8.70;;;;;;;;;;10351743;28;20067;-57
2022/01/10 08:01:17;;;;;;;13.85;9.25;;;;;;;;;;10349999;28;20127;-57
2022/01/10 08:06:15;;;;;;;14.10;9.95;;;;;;;;;;10342960;28;20072;-57
2022/01/10 08:11:15;;;;;;;8.18;7.10;;;;;;;;;;10349650;28;20579;-57
2022/01/10 08:16:14;;;;;;;8.15;7.25;;;;;;;;;;10350522;28;20091;-56
2022/01/10 08:21:13;;;;;;;15.20;13.57;;;;;;;;;;10350708;28;20064;-57
2022/01/10 08:26:12;;;;;;;11.52;9.65;;;;;;;;;;10343464;28;20078;-57
2022/01/10 08:31:11;;;;;;;10.93;8.70;;;;;;;;;;10350420;28;20056;-58
2022/01/10 08:36:10;;;;;;;12.30;11.05;;;;;;;;;;10350687;28;20501;-57
2022/01/10 08:41:08;;;;;;;15.82;12.95;;;;;;;;;;10343798;28;20071;-58
2022/01/10 08:46:06;;;;;;;27.48;20.38;;;;;;;;;;10343310;28;20506;-58
2022/01/10 08:51:20;;;;;;;14.23;9.98;;;;;;;;;;10344246;28;20076;-57
2022/01/10 08:56:18;;;;;;;12.35;10.75;;;;;;;;;;10350903;28;20082;-58
2022/01/10 09:01:19;;;;;;;10.48;9.38;;;;;;;;;;10357111;28;20067;-58
2022/01/10 09:06:17;;;;;;;11.75;10.57;;;;;;;;;;10357238;28;20063;-56
2022/01/10 09:11:17;;;;;;;18.20;16.27;;;;;;;;;;10357351;28;20063;-59
2022/01/10 09:16:16;;;;;;;18.40;14.35;;;;;;;;;;10353508;28;20105;-58
2022/01/10 09:21:15;;;;;;;13.52;9.95;;;;;;;;;;10358891;28;20036;-59
2022/01/10 09:26:14;;;;;;;8.93;7.18;;;;;;;;;;10357015;28;20080;-58
2022/01/10 09:31:14;;;;;;;11.18;9.45;;;;;;;;;;10356824;28;20079;-58
2022/01/10 09:36:12;;;;;;;11.38;10.15;;;;;;;;;;10357078;28;20480;-58
2022/01/10 09:41:11;;;;;;;13.02;9.20;;;;;;;;;;10358156;28;20059;-58
2022/01/10 09:46:09;;;;;;;16.98;12.50;;;;;;;;;;10357013;28;20087;-57
2022/01/10 09:51:09;;;;;;;16.27;10.73;;;;;;;;;;10354043;28;20545;-59
2022/01/10 09:56:08;;;;;;;13.55;10.07;;;;;;;;;;10356019;28;20068;-58
2022/01/10 10:01:13;;;;;;;9.32;7.07;;;;;;;;;;10356921;28;20405;-57
2022/01/10 10:06:13;;;;;;;9.70;7.75;;;;;;;;;;10337418;28;20044;-58
2022/01/10 10:11:11;;;;;;;13.27;10.32;;;;;;;;;;10353541;28;20078;-58
2022/01/10 10:16:13;;;;;;;11.38;8.95;;;;;;;;;;10354747;28;20059;-57
2022/01/10 10:21:13;;;;;;;13.20;9.00;;;;;;;;;;10348102;28;20454;-58
2022/01/10 10:26:12;;;;;;;11.18;9.43;;;;;;;;;;10347793;28;20067;-57
2022/01/10 10:31:10;;;;;;;11.93;9.93;;;;;;;;;;10348071;28;20483;-55
2022/01/10 10:36:10;;;;;;;11.13;9.18;;;;;;;;;;10354866;28;20075;-58
2022/01/10 10:41:11;;;;;;;14.52;10.45;;;;;;;;;;10354345;28;20135;-56
2022/01/10 10:46:12;;;;;;;18.30;13.55;;;;;;;;;;10354284;28;20072;-57
2022/01/10 10:51:11;;;;;;;13.38;10.48;;;;;;;;;;10344110;28;20082;-57
2022/01/10 10:56:10;;;;;;;18.17;14.60;;;;;;;;;;10352317;28;20071;-57
2022/01/10 11:01:09;;;;;;;15.52;11.48;;;;;;;;;;10351987;28;20059;-57
2022/01/10 11:06:10;;;;;;;15.52;12.50;;;;;;;;;;10351498;28;20103;-58
2022/01/10 11:11:08;;;;;;;15.00;12.18;;;;;;;;;;10351675;28;20481;-58
2022/01/10 11:16:08;;;;;;;15.00;13.02;;;;;;;;;;10352782;28;20071;-59
2022/01/10 11:21:07;;;;;;;13.88;12.40;;;;;;;;;;10350185;28;20796;-58
2022/01/10 11:26:06;;;;;;;18.67;15.48;;;;;;;;;;10351898;28;20493;-59
2022/01/10 11:31:07;;;;;;;16.88;13.40;;;;;;;;;;10353147;28;20067;-59
2022/01/10 11:36:08;;;;;;;90.47;55.08;;;;;;;;;;10351656;28;20196;-58
2022/01/10 11:41:08;;;;;;;19.05;14.55;;;;;;;;;;10351970;28;20346;-58
2022/01/10 11:46:07;;;;;;;24.88;20.17;;;;;;;;;;10351301;28;20103;-58
2022/01/10 11:51:14;;;;;;;19.73;15.15;;;;;;;;;;10350590;28;20048;-59
2022/01/10 11:56:23;;;;;;;24.45;17.15;;;;;;;;;;10346317;28;20474;-58
2022/01/10 12:01:32;;;;;;;17.98;14.15;;;;;;;;;;10346514;28;20079;-58
2022/01/10 12:06:32;;;;;;;17.23;13.10;;;;;;;;;;10350514;28;20063;-57
2022/01/10 12:11:31;;;;;;;20.80;15.70;;;;;;;;;;10350434;28;20139;-59
2022/01/10 12:16:29;;;;;;;19.05;15.45;;;;;;;;;;10350071;28;20071;-59
2022/01/10 12:21:27;;;;;;;24.30;16.98;;;;;;;;;;10349805;28;20079;-58
2022/01/10 12:26:28;;;;;;;20.50;15.30;;;;;;;;;;10351346;28;20040;-59
2022/01/10 12:31:28;;;;;;;21.83;15.75;;;;;;;;;;10351185;28;20106;-59
2022/01/10 12:36:27;;;;;;;21.90;15.57;;;;;;;;;;10358030;28;20501;-58
2022/01/10 12:41:26;;;;;;;37.95;26.42;;;;;;;;;;10356753;28;20464;-58
2022/01/10 12:46:27;;;;;;;21.10;16.52;;;;;;;;;;10356294;28;20067;-58
2022/01/10 12:51:26;;;;;;;18.75;14.38;;;;;;;;;;10357733;28;20472;-58
2022/01/10 12:56:34;;;;;;;25.45;19.95;;;;;;;;;;10356922;28;20075;-58
2022/01/10 13:01:32;;;;;;;23.05;17.15;;;;;;;;;;10356929;28;20062;-60
2022/01/10 13:06:31;;;;;;;26.83;18.05;;;;;;;;;;10356712;28;20072;-59
2022/01/10 13:11:43;;;;;;;29.15;19.73;;;;;;;;;;10355226;28;20075;-58
2022/01/10 13:16:43;;;;;;;28.33;18.73;;;;;;;;;;10356215;28;20076;-59
2022/01/10 13:21:46;;;;;;;27.60;20.42;;;;;;;;;;10356301;28;20197;-59
2022/01/10 13:26:54;;;;;;;21.30;15.88;;;;;;;;;;10355884;28;20059;-57
2022/01/10 13:31:54;;;;;;;32.97;22.00;;;;;;;;;;10354745;28;20450;-59
2022/01/10 13:36:53;;;;;;;29.17;21.45;;;;;;;;;;10354735;28;20076;-59
2022/01/10 13:41:58;;;;;;;24.50;17.70;;;;;;;;;;10355126;28;20079;-59
2022/01/10 13:47:01;;;;;;;27.15;19.67;;;;;;;;;;10353865;28;20076;-58
2022/01/10 13:52:10;;;;;;;27.77;20.52;;;;;;;;;;10356096;28;20083;-58
2022/01/10 13:57:15;;;;;;;30.35;20.55;;;;;;;;;;10354984;28;20082;-58
2022/01/10 14:02:16;;;;;;;27.10;21.17;;;;;;;;;;10354986;28;20083;-58
2022/01/10 14:07:15;;;;;;;19.27;13.65;;;;;;;;;;10353584;28;20209;-58
2022/01/10 14:12:13;;;;;;;21.25;14.43;;;;;;;;;;10354850;28;20079;-58
2022/01/10 14:17:11;;;;;;;17.95;13.73;;;;;;;;;;10353535;28;20148;-58
2022/01/10 14:22:11;;;;;;;23.20;17.20;;;;;;;;;;10352204;28;20047;-57
2022/01/10 14:27:09;;;;;;;20.85;15.13;;;;;;;;;;10352222;28;20064;-59
2022/01/10 14:32:09;;;;;;;21.33;16.70;;;;;;;;;;10335507;28;20040;-58
2022/01/10 14:37:08;;;;;;;32.38;21.05;;;;;;;;;;10353060;28;20126;-59
2022/01/10 14:42:08;;;;;;;29.50;17.65;;;;;;;;;;10352651;28;20068;-58
2022/01/10 14:47:06;;;;;;;37.05;22.60;;;;;;;;;;10354006;28;20454;-57
2022/01/10 14:52:05;;;;;;;39.30;24.05;;;;;;;;;;10351068;28;20082;-57
2022/01/10 14:57:03;;;;;;;39.50;25.10;;;;;;;;;;10350353;28;20078;-54
2022/01/10 15:02:03;;;;;;;29.85;20.13;;;;;;;;;;10350882;28;20142;-56
2022/01/10 15:07:02;;;;;;;27.73;20.20;;;;;;;;;;10350948;28;20464;-52
2022/01/10 15:12:00;;;;;;;31.02;22.48;;;;;;;;;;10350977;28;20040;-58
2022/01/10 15:16:58;;;;;;;21.10;17.23;;;;;;;;;;10351580;28;20071;-59
2022/01/10 15:21:58;;;;;;;19.65;14.27;;;;;;;;;;10351396;28;20098;-59
2022/01/10 15:27:01;;;;;;;23.83;17.33;;;;;;;;;;10351835;28;20051;-59
2022/01/10 15:31:59;;;;;;;20.73;15.45;;;;;;;;;;10351774;28;20067;-59
2022/01/10 15:36:59;;;;;;;19.77;16.05;;;;;;;;;;10350442;28;20492;-56
2022/01/10 15:41:58;;;;;;;24.85;19.05;;;;;;;;;;10349387;28;20437;-58
2022/01/10 15:46:58;;;;;;;26.25;19.58;;;;;;;;;;10350206;28;20078;-58
2022/01/10 15:51:56;;;;;;;29.83;22.30;;;;;;;;;;10346926;28;20080;-58
2022/01/10 15:56:56;;;;;;;24.77;19.67;;;;;;;;;;10349475;28;20493;-57
2022/01/10 16:01:55;;;;;;;30.85;21.65;;;;;;;;;;10348475;28;20098;-57
2022/01/10 16:06:55;;;;;;;33.88;24.92;;;;;;;;;;10352157;28;20036;-57
2022/01/10 16:11:55;;;;;;;30.05;21.88;;;;;;;;;;10336902;28;20442;-58
2022/01/10 16:16:55;;;;;;;40.95;28.17;;;;;;;;;;10355689;28;20084;-57
2022/01/10 16:21:53;;;;;;;41.67;29.52;;;;;;;;;;10353695;28;20492;-57
2022/01/10 16:26:51;;;;;;;29.92;22.27;;;;;;;;;;10355777;28;20075;-58
2022/01/10 16:31:49;;;;;;;42.88;27.98;;;;;;;;;;10355506;28;20066;-57
2022/01/10 16:36:49;;;;;;;39.97;28.58;;;;;;;;;;10355157;28;20075;-57
2022/01/10 16:41:47;;;;;;;36.08;25.42;;;;;;;;;;10353537;28;20524;-57
2022/01/10 16:46:46;;;;;;;31.17;24.02;;;;;;;;;;10354347;28;20060;-56
2022/01/10 16:51:44;;;;;;;33.83;25.48;;;;;;;;;;10356994;28;20063;-58
2022/01/10 16:56:44;;;;;;;33.80;23.15;;;;;;;;;;10356429;28;20079;-58
2022/01/10 17:01:42;;;;;;;33.15;22.60;;;;;;;;;;10356554;28;20052;-56
2022/01/10 17:06:41;;;;;;;35.25;24.75;;;;;;;;;;10355420;28;20209;-57
2022/01/10 17:11:39;;;;;;;31.48;22.98;;;;;;;;;;10354541;28;20501;-58
2022/01/10 17:16:39;;;;;;;43.13;30.20;;;;;;;;;;10354389;28;20076;-57
2022/01/10 17:21:37;;;;;;;44.40;28.25;;;;;;;;;;10353943;28;20535;-54
2022/01/10 17:26:35;;;;;;;37.03;26.15;;;;;;;;;;10353973;28;20086;-58
2022/01/10 17:31:34;;;;;;;28.10;20.95;;;;;;;;;;10353477;28;20068;-58
2022/01/10 17:36:35;;;;;;;25.60;18.55;;;;;;;;;;10353227;28;20079;-58
2022/01/10 17:41:33;;;;;;;41.55;24.08;;;;;;;;;;10352118;28;20079;-57
2022/01/10 17:46:32;;;;;;;30.05;21.88;;;;;;;;;;10353170;28;20066;-58
2022/01/10 17:51:36;;;;;;;28.95;19.77;;;;;;;;;;10352550;28;20113;-58
2022/01/10 17:56:35;;;;;;;29.40;19.58;;;;;;;;;;10352210;28;20087;-56
2022/01/10 18:01:34;;;;;;;33.28;23.70;;;;;;;;;;10352855;28;20060;-59
2022/01/10 18:06:33;;;;;;;28.55;20.65;;;;;;;;;;10354353;28;20536;-59
2022/01/10 18:11:32;;;;;;;32.78;23.17;;;;;;;;;;10348260;28;20075;-58
2022/01/10 18:16:32;;;;;;;28.95;22.00;;;;;;;;;;10349745;28;20086;-58
2022/01/10 18:21:31;;;;;;;38.80;24.27;;;;;;;;;;10352283;28;20099;-57
2022/01/10 18:26:29;;;;;;;25.45;19.50;;;;;;;;;;10331467;28;20068;-57
2022/01/10 18:31:27;;;;;;;29.45;21.15;;;;;;;;;;10349629;28;20078;-58
2022/01/10 18:36:29;;;;;;;28.23;18.65;;;;;;;;;;10351813;28;20080;-57
2022/01/10 18:41:27;;;;;;;28.13;19.88;;;;;;;;;;10351315;28;20063;-58
2022/01/10 18:46:25;;;;;;;29.42;19.15;;;;;;;;;;10352248;28;20070;-58
2022/01/10 18:51:23;;;;;;;27.55;19.65;;;;;;;;;;10351189;28;20539;-57
2022/01/10 18:56:23;;;;;;;28.80;20.20;;;;;;;;;;10350586;28;20071;-56
2022/01/10 19:01:22;;;;;;;29.38;22.48;;;;;;;;;;10349995;28;20139;-55
2022/01/10 19:06:21;;;;;;;30.48;23.02;;;;;;;;;;10348939;28;20458;-58
2022/01/10 19:11:19;;;;;;;33.15;24.25;;;;;;;;;;10350480;28;20414;-57
2022/01/10 19:16:19;;;;;;;32.78;23.92;;;;;;;;;;10348540;28;20492;-57
2022/01/10 19:21:17;;;;;;;33.70;24.60;;;;;;;;;;10349667;28;20496;-56
2022/01/10 19:26:16;;;;;;;43.22;29.50;;;;;;;;;;10348925;28;20086;-57
2022/01/10 19:31:16;;;;;;;30.15;21.13;;;;;;;;;;10351370;28;20040;-54
2022/01/10 19:36:16;;;;;;;32.75;23.42;;;;;;;;;;10346149;28;20402;-55
2022/01/10 19:41:15;;;;;;;32.70;23.08;;;;;;;;;;10351081;28;20040;-57
2022/01/10 19:46:13;;;;;;;34.63;23.30;;;;;;;;;;10350536;28;20064;-57
2022/01/10 19:51:11;;;;;;;34.42;25.65;;;;;;;;;;10344713;28;20076;-53
2022/01/10 19:56:12;;;;;;;51.00;35.13;;;;;;;;;;10344795;28;20210;-57
2022/01/10 20:01:10;;;;;;;33.28;22.55;;;;;;;;;;10343729;28;20286;-56
2022/01/10 20:06:09;;;;;;;37.83;25.13;;;;;;;;;;10348164;28;20122;-54
2022/01/10 20:11:09;;;;;;;38.58;24.33;;;;;;;;;;10347566;28;20060;-56
2022/01/10 20:16:12;;;;;;;34.15;25.30;;;;;;;;;;10351215;28;20090;-53
2022/01/10 20:21:11;;;;;;;39.50;27.90;;;;;;;;;;10346314;28;20059;-57
2022/01/10 20:26:09;;;;;;;35.45;23.10;;;;;;;;;;10352032;28;20052;-56
2022/01/10 20:31:09;;;;;;;33.60;22.00;;;;;;;;;;10348218;28;20067;-56
2022/01/10 20:36:08;;;;;;;34.33;25.90;;;;;;;;;;10350696;28;20152;-57
2022/01/10 20:41:06;;;;;;;40.15;26.00;;;;;;;;;;10347110;28;20063;-57
2022/01/10 20:46:06;;;;;;;37.80;26.35;;;;;;;;;;10347626;28;20072;-54
2022/01/10 20:51:06;;;;;;;33.20;24.88;;;;;;;;;;10343145;28;20089;-57
2022/01/10 20:56:05;;;;;;;31.58;22.00;;;;;;;;;;10354905;28;20071;-56
2022/01/10 21:01:04;;;;;;;33.80;22.55;;;;;;;;;;10355042;28;20120;-55
2022/01/10 21:06:04;;;;;;;34.10;25.58;;;;;;;;;;10355345;28;20155;-56
2022/01/10 21:11:04;;;;;;;31.58;24.58;;;;;;;;;;10350838;28;20060;-56
2022/01/10 21:16:02;;;;;;;40.05;28.00;;;;;;;;;;10352406;28;20072;-56
2022/01/10 21:21:01;;;;;;;34.47;23.27;;;;;;;;;;10356975;28;20071;-58
2022/01/10 21:26:02;;;;;;;32.95;23.88;;;;;;;;;;10357391;28;20158;-57
2022/01/10 21:31:01;;;;;;;29.30;20.60;;;;;;;;;;10357601;28;20071;-56
2022/01/10 21:36:00;;;;;;;30.70;21.33;;;;;;;;;;10354018;28;20067;-54
2022/01/10 21:40:58;;;;;;;32.83;23.52;;;;;;;;;;10355508;28;20067;-51
2022/01/10 21:45:56;;;;;;;37.15;26.20;;;;;;;;;;10351963;28;20070;-56
2022/01/10 21:50:56;;;;;;;30.20;21.50;;;;;;;;;;10354229;28;20068;-57
2022/01/10 21:55:55;;;;;;;31.38;21.27;;;;;;;;;;10353357;28;20064;-56
2022/01/10 22:00:53;;;;;;;30.23;20.75;;;;;;;;;;10353807;28;20079;-57
2022/01/10 22:05:53;;;;;;;34.55;22.80;;;;;;;;;;10353700;28;20075;-56
2022/01/10 22:10:52;;;;;;;30.67;21.52;;;;;;;;;;10356151;28;20469;-55
2022/01/10 22:15:53;;;;;;;36.25;23.95;;;;;;;;;;10348946;28;20075;-58
2022/01/10 22:20:57;;;;;;;30.25;23.77;;;;;;;;;;10349426;28;20094;-57
2022/01/10 22:25:57;;;;;;;29.50;20.70;;;;;;;;;;10346252;28;20500;-58
2022/01/10 22:30:55;;;;;;;31.67;23.45;;;;;;;;;;10354533;28;20063;-57
2022/01/10 22:35:55;;;;;;;31.80;22.60;;;;;;;;;;10351267;28;20113;-56
2022/01/10 22:40:53;;;;;;;30.08;21.92;;;;;;;;;;10351563;28;20075;-56
2022/01/10 22:45:54;;;;;;;31.95;22.65;;;;;;;;;;10350622;28;20070;-56
2022/01/10 22:50:53;;;;;;;37.63;25.88;;;;;;;;;;10354841;28;20080;-59
2022/01/10 22:55:51;;;;;;;32.38;21.95;;;;;;;;;;10354062;28;20079;-56
2022/01/10 23:00:49;;;;;;;37.80;26.50;;;;;;;;;;10354694;28;20087;-56
2022/01/10 23:05:49;;;;;;;31.95;21.75;;;;;;;;;;10353027;28;20079;-53
2022/01/10 23:10:49;;;;;;;40.97;24.25;;;;;;;;;;10352344;28;20433;-56
2022/01/10 23:15:47;;;;;;;39.92;25.23;;;;;;;;;;10352502;28;20075;-57
2022/01/10 23:20:45;;;;;;;40.15;24.23;;;;;;;;;;10352482;28;20385;-58
2022/01/10 23:25:47;;;;;;;38.10;24.80;;;;;;;;;;10351910;28;20071;-56
2022/01/10 23:30:46;;;;;;;33.80;21.98;;;;;;;;;;10352089;28;20060;-56
2022/01/10 23:35:49;;;;;;;39.00;25.27;;;;;;;;;;10351444;28;20064;-56
2022/01/10 23:40:49;;;;;;;35.55;21.20;;;;;;;;;;10350668;28;20075;-55
2022/01/10 23:45:48;;;;;;;32.72;20.40;;;;;;;;;;10332363;28;20052;-57
2022/01/10 23:50:49;;;;;;;32.65;21.55;;;;;;;;;;10347490;28;20458;-57
2022/01/10 23:55:49;;;;;;;34.75;18.92;;;;;;;;;;10352380;28;20159;-56
